createdAt,value
2019-05-02T00:02:47.638Z,11.33
2019-05-02T00:07:06.261Z,9.70
2019-05-02T00:11:12.154Z,10.20
2019-05-02T00:15:17.897Z,10.55
2019-05-02T00:19:23.609Z,11.03
2019-05-02T00:23:29.688Z,11.45
2019-05-02T00:27:37.686Z,11.50
2019-05-02T00:31:46.840Z,10.40
2019-05-02T00:35:52.411Z,9.55
2019-05-02T00:39:58.036Z,11.83
2019-05-02T00:44:06.066Z,11.40
2019-05-02T00:48:23.201Z,10.95
2019-05-02T00:52:32.990Z,10.80
2019-05-02T00:56:40.142Z,11.78
2019-05-02T01:01:02.051Z,13.03
2019-05-02T01:05:07.702Z,15.10
2019-05-02T01:09:13.487Z,13.90
2019-05-02T01:13:20.344Z,14.50
2019-05-02T01:17:30.915Z,10.98
2019-05-02T01:21:38.841Z,15.45
2019-05-02T01:25:47.240Z,10.82
2019-05-02T01:30:25.798Z,13.18
2019-05-02T01:34:38.695Z,11.45
2019-05-02T01:38:49.296Z,12.40
2019-05-02T01:42:56.598Z,11.12
2019-05-02T01:47:03.159Z,12.75
2019-05-02T01:51:12.144Z,12.23
2019-05-02T01:55:21.149Z,13.40
2019-05-02T01:59:29.047Z,11.10
2019-05-02T02:03:33.647Z,12.28
2019-05-02T02:07:39.314Z,10.65
2019-05-02T02:11:45.091Z,11.63
2019-05-02T02:15:50.783Z,10.40
2019-05-02T02:20:00.764Z,12.07
2019-05-02T02:24:13.690Z,12.18
2019-05-02T02:28:20.485Z,13.55
2019-05-02T02:32:27.012Z,13.60
2019-05-02T02:36:34.869Z,13.65
2019-05-02T02:40:40.869Z,12.47
2019-05-02T02:44:55.086Z,12.10
2019-05-02T02:49:00.724Z,13.32
2019-05-02T02:53:07.870Z,11.63
2019-05-02T02:57:26.067Z,11.75
2019-05-02T03:01:29.069Z,12.68
2019-05-02T03:05:31.576Z,10.78
2019-05-02T03:09:37.328Z,14.18
2019-05-02T03:14:10.876Z,12.25
2019-05-02T03:18:17.926Z,10.48
2019-05-02T03:22:23.565Z,12.82
2019-05-02T03:26:30.645Z,12.45
2019-05-02T03:30:37.690Z,15.23
2019-05-02T03:34:52.221Z,12.82
2019-05-02T03:38:51.688Z,13.90
2019-05-02T03:42:57.342Z,11.90
2019-05-02T03:47:04.941Z,12.23
2019-05-02T03:51:19.283Z,11.30
2019-05-02T03:55:23.695Z,12.93
2019-05-02T03:59:37.707Z,15.15
2019-05-02T04:03:41.070Z,11.50
2019-05-02T04:07:46.069Z,10.70
2019-05-02T04:11:51.946Z,14.95
2019-05-02T04:15:58.728Z,13.08
2019-05-02T04:20:09.372Z,13.35
2019-05-02T04:24:15.662Z,14.70
2019-05-02T04:28:19.318Z,14.10
2019-05-02T04:32:25.063Z,9.63
2019-05-02T04:36:30.835Z,14.38
2019-05-02T04:40:41.725Z,12.60
2019-05-02T04:45:07.518Z,12.20
2019-05-02T04:48:52.868Z,14.63
2019-05-02T04:52:59.282Z,12.25
2019-05-02T04:57:08.209Z,13.35
2019-05-02T05:01:12.647Z,13.00
2019-05-02T05:05:25.775Z,13.45
2019-05-02T05:09:27.870Z,11.60
2019-05-02T05:13:33.888Z,10.63
2019-05-02T05:17:39.515Z,11.97
2019-05-02T05:21:45.066Z,14.18
2019-05-02T05:26:02.940Z,12.03
2019-05-02T05:30:11.229Z,11.43
2019-05-02T05:34:11.447Z,10.72
2019-05-02T05:38:18.199Z,10.20
2019-05-02T05:42:30.216Z,11.93
2019-05-02T05:46:33.347Z,10.00
2019-05-02T05:50:41.439Z,11.30
2019-05-02T05:54:47.479Z,12.37
2019-05-02T05:58:59.123Z,9.43
2019-05-02T06:03:11.541Z,11.22
2019-05-02T06:07:13.162Z,10.53
2019-05-02T06:11:20.195Z,11.18
2019-05-02T06:15:26.089Z,12.00
2019-05-02T06:19:32.901Z,11.18
2019-05-02T06:23:41.565Z,11.10
2019-05-02T06:27:47.434Z,10.63
2019-05-02T06:31:53.261Z,9.25
2019-05-02T06:36:02.512Z,9.38
2019-05-02T06:40:09.451Z,11.20
2019-05-02T06:44:18.420Z,12.00
2019-05-02T06:48:22.553Z,8.58
2019-05-02T06:52:32.758Z,9.53
2019-05-02T06:56:36.757Z,9.40
2019-05-02T07:00:56.375Z,10.23
2019-05-02T07:04:54.835Z,10.90
2019-05-02T07:08:59.614Z,9.95
2019-05-02T07:13:10.927Z,9.05
2019-05-02T07:17:48.874Z,8.90
2019-05-02T07:21:58.696Z,7.53
2019-05-02T07:26:03.242Z,9.30
2019-05-02T07:30:08.975Z,8.73
2019-05-02T07:34:17.654Z,9.23
2019-05-02T07:38:25.772Z,8.00
2019-05-02T07:42:30.781Z,7.70
2019-05-02T07:46:36.536Z,9.28
2019-05-02T07:50:46.479Z,7.85
2019-05-02T07:54:49.344Z,7.70
2019-05-02T07:58:54.946Z,6.92
2019-05-02T08:03:00.646Z,8.53
2019-05-02T08:07:06.335Z,7.87
2019-05-02T08:11:11.972Z,7.85
2019-05-02T08:15:17.617Z,7.55
2019-05-02T08:19:23.660Z,8.80
2019-05-02T08:23:30.340Z,7.95
2019-05-02T08:27:50.365Z,7.10
2019-05-02T08:31:56.300Z,7.60
2019-05-02T08:36:02.225Z,7.00
2019-05-02T08:40:10.521Z,7.65
2019-05-02T08:44:16.758Z,6.58
2019-05-02T08:48:22.850Z,7.03
2019-05-02T08:52:28.607Z,6.97
2019-05-02T08:56:35.008Z,6.78
2019-05-02T09:00:40.823Z,6.80
2019-05-02T09:04:57.930Z,6.58
2019-05-02T09:08:53.736Z,6.35
2019-05-02T09:12:59.320Z,5.87
2019-05-02T09:17:11.962Z,6.10
2019-05-02T09:21:15.057Z,6.30
2019-05-02T09:25:21.967Z,6.78
2019-05-02T09:29:27.980Z,6.30
2019-05-02T09:33:36.833Z,6.28
2019-05-02T09:37:41.907Z,6.00
2019-05-02T09:41:48.302Z,5.70
2019-05-02T09:45:53.925Z,6.05
2019-05-02T09:50:09.336Z,5.50
2019-05-02T09:54:14.973Z,5.47
2019-05-02T09:58:24.074Z,5.67
2019-05-02T10:02:30.192Z,5.30
2019-05-02T10:06:35.800Z,4.97
2019-05-02T10:10:44.188Z,5.15
2019-05-02T10:14:48.678Z,5.00
2019-05-02T10:18:54.395Z,4.83
2019-05-02T10:23:01.863Z,4.80
2019-05-02T10:27:08.622Z,4.40
2019-05-02T10:31:14.645Z,4.53
2019-05-02T10:35:22.872Z,4.10
2019-05-02T10:39:34.077Z,4.20
2019-05-02T10:43:35.917Z,4.30
2019-05-02T10:47:42.283Z,3.98
2019-05-02T10:51:49.565Z,4.90
2019-05-02T10:55:55.419Z,3.80
2019-05-02T11:00:03.229Z,3.98
2019-05-02T11:04:12.899Z,3.72
2019-05-02T11:08:18.640Z,3.95
2019-05-02T11:12:44.435Z,3.37
2019-05-02T11:17:01.773Z,3.67
2019-05-02T11:21:12.132Z,3.60
2019-05-02T11:25:22.459Z,3.67
2019-05-02T11:29:28.196Z,3.72
2019-05-02T11:33:33.801Z,3.52
2019-05-02T11:37:39.638Z,3.67
2019-05-02T11:41:45.315Z,3.50
2019-05-02T11:45:54.169Z,3.30
2019-05-02T11:49:58.291Z,3.70
2019-05-02T11:54:08.196Z,3.08
2019-05-02T11:58:12.542Z,3.40
2019-05-02T12:02:54.206Z,3.35
2019-05-02T12:07:01.147Z,3.25
2019-05-02T12:11:08.415Z,3.20
2019-05-02T12:15:12.067Z,3.30
2019-05-02T12:19:17.631Z,3.30
2019-05-02T12:23:23.264Z,3.58
2019-05-02T12:27:29.108Z,3.08
2019-05-02T12:31:34.727Z,3.00
2019-05-02T12:35:40.361Z,3.30
2019-05-02T12:39:46.019Z,2.60
2019-05-02T12:43:52.472Z,3.10
2019-05-02T12:47:58.319Z,3.20
2019-05-02T12:52:04.057Z,3.10
2019-05-02T12:56:11.721Z,2.75
2019-05-02T13:00:18.542Z,3.22
2019-05-02T13:04:24.384Z,3.00
2019-05-02T13:08:30.027Z,2.80
2019-05-02T13:12:37.644Z,2.50
2019-05-02T13:16:43.267Z,2.52
2019-05-02T13:20:49.448Z,2.85
2019-05-02T13:24:58.031Z,2.90
2019-05-02T13:29:03.679Z,2.77
2019-05-02T13:33:12.259Z,2.87
2019-05-02T13:37:19.768Z,2.77
2019-05-02T13:41:25.457Z,2.60
2019-05-02T13:45:55.501Z,3.10
2019-05-02T13:50:03.751Z,2.60
2019-05-02T13:54:08.851Z,3.25
2019-05-02T13:58:14.618Z,2.85
2019-05-02T14:02:35.073Z,2.60
2019-05-02T14:06:42.096Z,2.50
2019-05-02T14:10:49.504Z,2.60
2019-05-02T14:14:56.425Z,2.62
2019-05-02T14:19:02.947Z,2.90
2019-05-02T14:23:08.778Z,2.83
2019-05-02T14:27:17.206Z,2.70
2019-05-02T14:31:21.752Z,2.42
2019-05-02T14:35:36.303Z,2.60
2019-05-02T14:39:43.101Z,2.40
2019-05-02T14:43:56.242Z,2.50
2019-05-02T14:48:18.072Z,2.55
2019-05-02T14:52:12.522Z,2.72
2019-05-02T14:56:33.121Z,2.37
2019-05-02T15:00:47.774Z,2.70
2019-05-02T15:04:52.125Z,2.22
2019-05-02T15:08:57.455Z,2.55
2019-05-02T15:13:03.917Z,2.27
2019-05-02T15:17:11.988Z,2.87
2019-05-02T15:21:22.867Z,2.25
2019-05-02T15:25:28.789Z,2.65
2019-05-02T15:29:34.427Z,2.30
2019-05-02T15:33:51.728Z,2.42
2019-05-02T15:38:02.688Z,2.40
2019-05-02T15:42:04.581Z,2.87
2019-05-02T15:46:10.342Z,2.52
2019-05-02T15:50:21.938Z,2.90
2019-05-02T15:54:23.825Z,2.72
2019-05-02T15:58:29.698Z,2.75
2019-05-02T16:02:35.535Z,2.58
2019-05-02T16:06:41.857Z,2.40
2019-05-02T16:10:47.704Z,2.30
2019-05-02T16:14:53.452Z,3.02
2019-05-02T16:18:59.088Z,3.15
2019-05-02T16:23:05.017Z,3.22
2019-05-02T16:27:11.712Z,3.02
2019-05-02T16:31:22.096Z,2.40
2019-05-02T16:35:26.266Z,2.42
2019-05-02T16:39:32.474Z,3.05
2019-05-02T16:43:38.558Z,2.50
2019-05-02T16:47:44.307Z,2.37
2019-05-02T16:51:49.967Z,1.98
2019-05-02T16:55:58.484Z,3.08
2019-05-02T17:00:06.219Z,2.40
2019-05-02T17:04:12.995Z,2.40
2019-05-02T17:08:44.555Z,2.55
2019-05-02T17:12:52.917Z,2.52
2019-05-02T17:16:57.464Z,2.37
2019-05-02T17:21:03.200Z,2.80
2019-05-02T17:25:08.989Z,2.52
2019-05-02T17:29:16.471Z,2.52
2019-05-02T17:33:21.917Z,2.70
2019-05-02T17:37:27.987Z,2.62
2019-05-02T17:41:37.071Z,2.40
2019-05-02T17:45:42.645Z,2.60
2019-05-02T17:49:48.530Z,2.60
2019-05-02T17:53:55.202Z,2.50
2019-05-02T17:58:04.651Z,2.80
2019-05-02T18:02:12.341Z,2.60
2019-05-02T18:06:17.374Z,2.60
2019-05-02T18:10:25.085Z,2.77
2019-05-02T18:14:30.570Z,2.60
2019-05-02T18:18:37.442Z,2.55
2019-05-02T18:22:45.422Z,2.40
2019-05-02T18:26:51.768Z,2.20
2019-05-02T18:31:02.842Z,2.77
2019-05-02T18:35:06.441Z,2.83
2019-05-02T18:39:12.989Z,3.20
2019-05-02T18:43:19.197Z,2.70
2019-05-02T18:47:25.171Z,2.85
2019-05-02T18:51:32.186Z,2.83
2019-05-02T18:55:38.141Z,2.90
2019-05-02T18:59:44.042Z,2.83
2019-05-02T19:03:52.498Z,3.20
2019-05-02T19:07:57.742Z,2.98
2019-05-02T19:12:05.765Z,2.80
2019-05-02T19:16:12.803Z,3.10
2019-05-02T19:21:07.518Z,3.00
2019-05-02T19:25:13.237Z,3.12
2019-05-02T19:29:26.318Z,3.15
2019-05-02T19:33:32.094Z,4.33
2019-05-02T19:37:44.632Z,3.35
2019-05-02T19:41:45.797Z,3.30
2019-05-02T19:45:54.021Z,3.17
2019-05-02T19:49:59.770Z,2.90
2019-05-02T19:54:07.134Z,3.20
2019-05-02T19:58:13.414Z,3.22
2019-05-02T20:02:19.221Z,3.20
2019-05-02T20:06:27.221Z,3.60
2019-05-02T20:10:33.046Z,3.30
2019-05-02T20:14:46.070Z,3.58
2019-05-02T20:18:47.244Z,3.50
2019-05-02T20:22:54.315Z,3.20
2019-05-02T20:27:00.004Z,3.27
2019-05-02T20:31:05.852Z,3.58
2019-05-02T20:35:15.093Z,3.45
2019-05-02T20:39:22.462Z,3.42
2019-05-02T20:43:28.466Z,3.47
2019-05-02T20:47:34.228Z,3.45
2019-05-02T20:51:39.914Z,3.65
2019-05-02T20:55:45.652Z,3.45
2019-05-02T20:59:56.544Z,3.47
2019-05-02T21:04:02.898Z,3.37
2019-05-02T21:08:41.852Z,3.72
2019-05-02T21:12:47.699Z,3.35
2019-05-02T21:16:53.530Z,3.60
2019-05-02T21:20:59.279Z,3.58
2019-05-02T21:25:08.521Z,3.90
2019-05-02T21:29:14.765Z,3.90
2019-05-02T21:33:42.817Z,4.00
2019-05-02T21:37:49.584Z,3.57
2019-05-02T21:41:55.274Z,3.58
2019-05-02T21:46:02.371Z,3.75
2019-05-02T21:50:32.239Z,3.85
2019-05-02T21:54:44.717Z,4.17
2019-05-02T21:59:06.924Z,4.00
2019-05-02T22:03:12.811Z,4.15
2019-05-02T22:07:18.521Z,4.20
2019-05-02T22:11:48.359Z,4.35
2019-05-02T22:15:56.877Z,4.25
2019-05-02T22:20:02.532Z,4.40
2019-05-02T22:24:11.629Z,3.70
2019-05-02T22:28:15.608Z,4.33
2019-05-02T22:32:22.609Z,4.10
2019-05-02T22:36:28.293Z,4.20
2019-05-02T22:40:34.165Z,4.03
2019-05-02T22:44:41.700Z,4.35
2019-05-02T22:48:47.493Z,4.00
2019-05-02T22:52:53.665Z,3.95
2019-05-02T22:57:02.436Z,3.85
2019-05-02T23:01:07.685Z,4.17
2019-05-02T23:05:13.337Z,4.10
2019-05-02T23:09:19.011Z,4.28
2019-05-02T23:13:24.745Z,4.00
2019-05-02T23:17:32.040Z,3.80
2019-05-02T23:21:37.769Z,4.20
2019-05-02T23:26:12.863Z,3.92
2019-05-02T23:30:22.575Z,3.95
2019-05-02T23:34:28.327Z,3.98
2019-05-02T23:38:33.978Z,3.70
2019-05-02T23:42:42.192Z,3.80
2019-05-02T23:46:47.824Z,4.22
2019-05-02T23:50:53.550Z,3.92
2019-05-02T23:54:59.308Z,4.50
2019-05-02T23:59:05.006Z,3.98
